createdAt,value
2022-08-05T00:00:30.033Z,25.91
2022-08-05T00:01:29.341Z,25.93
2022-08-05T00:02:30.028Z,25.95
2022-08-05T00:03:29.009Z,25.96
2022-08-05T00:04:29.021Z,25.96
2022-08-05T00:06:02.890Z,25.96
2022-08-05T00:06:33.245Z,25.96
2022-08-05T00:07:59.664Z,25.96
2022-08-05T00:08:34.395Z,25.96
2022-08-05T00:09:29.982Z,25.98
2022-08-05T00:10:28.923Z,26.00
2022-08-05T00:11:30.598Z,26.00
2022-08-05T00:12:29.903Z,26.02
2022-08-05T00:13:38.360Z,25.99
2022-08-05T00:14:31.445Z,25.95
2022-08-05T00:15:58.207Z,25.93
2022-08-05T00:16:35.365Z,25.91
2022-08-05T00:17:30.041Z,25.87
2022-08-05T00:18:28.879Z,25.83
2022-08-05T00:19:33.432Z,25.80
2022-08-05T00:20:29.835Z,25.77
2022-08-05T00:21:30.669Z,25.73
2022-08-05T00:22:28.797Z,25.75
2022-08-05T00:23:44.659Z,25.75
2022-08-05T00:24:30.919Z,25.75
2022-08-05T00:25:28.765Z,25.66
2022-08-05T00:26:29.771Z,25.58
2022-08-05T00:27:36.262Z,25.48
2022-08-05T00:28:29.962Z,25.41
2022-08-05T00:29:37.764Z,25.35
2022-08-05T00:30:32.116Z,25.31
2022-08-05T00:31:54.113Z,25.28
2022-08-05T00:32:29.695Z,25.26
2022-08-05T00:34:53.755Z,25.26
2022-08-05T00:34:56.126Z,25.28
2022-08-05T00:35:33.325Z,25.31
2022-08-05T00:37:11.023Z,25.31
2022-08-05T00:37:35.839Z,25.32
2022-08-05T00:38:33.920Z,25.33
2022-08-05T00:39:28.706Z,25.36
2022-08-05T00:40:29.598Z,25.38
2022-08-05T00:41:28.613Z,25.41
2022-08-05T00:42:31.535Z,25.41
2022-08-05T00:43:28.579Z,25.38
2022-08-05T00:44:30.848Z,25.36
2022-08-05T00:45:43.033Z,25.38
2022-08-05T00:46:42.508Z,25.36
2022-08-05T00:47:53.129Z,25.31
2022-08-05T00:48:31.431Z,25.23
2022-08-05T00:49:32.847Z,25.17
2022-08-05T00:50:29.498Z,25.13
2022-08-05T00:51:51.258Z,25.10
2022-08-05T00:52:29.470Z,25.04
2022-08-05T00:53:45.141Z,24.99
2022-08-05T00:54:30.160Z,24.96
2022-08-05T00:55:42.217Z,24.91
2022-08-05T00:56:29.422Z,24.78
2022-08-05T00:57:38.456Z,24.70
2022-08-05T00:58:29.421Z,24.65
2022-08-05T00:59:44.289Z,24.57
2022-08-05T01:00:29.430Z,24.53
2022-08-05T01:01:42.613Z,24.50
2022-08-05T01:02:29.361Z,24.48
2022-08-05T01:03:30.920Z,24.47
2022-08-05T01:04:29.962Z,24.47
2022-08-05T01:05:28.330Z,24.43
2022-08-05T01:06:32.462Z,24.39
2022-08-05T01:07:31.844Z,24.28
2022-08-05T01:08:41.838Z,23.17
2022-08-05T01:09:30.356Z,22.30
2022-08-05T01:10:28.272Z,21.72
2022-08-05T01:11:37.086Z,21.30
2022-08-05T01:12:29.918Z,20.99
2022-08-05T01:13:58.788Z,20.80
2022-08-05T01:14:29.264Z,20.70
2022-08-05T01:15:36.198Z,20.65
2022-08-05T01:16:29.202Z,20.69
2022-08-05T01:17:28.195Z,20.84
2022-08-05T01:18:28.177Z,20.95
2022-08-05T01:19:56.443Z,20.97
2022-08-05T01:20:29.176Z,20.96
2022-08-05T01:21:38.118Z,20.99
2022-08-05T01:22:29.136Z,21.02
2022-08-05T01:23:34.883Z,21.03
2022-08-05T01:24:30.175Z,21.05
2022-08-05T01:25:41.050Z,21.07
2022-08-05T01:26:29.112Z,21.06
2022-08-05T01:27:28.124Z,21.03
2022-08-05T01:28:29.066Z,21.03
2022-08-05T01:29:28.056Z,21.06
2022-08-05T01:30:33.747Z,21.09
2022-08-05T01:31:29.065Z,21.06
2022-08-05T01:32:28.018Z,21.06
2022-08-05T01:33:28.008Z,21.03
2022-08-05T01:34:28.997Z,20.99
2022-08-05T01:35:52.239Z,20.92
2022-08-05T01:36:28.968Z,20.87
2022-08-05T01:37:28.138Z,20.80
2022-08-05T01:38:30.011Z,20.81
2022-08-05T01:39:46.341Z,20.85
2022-08-05T01:40:29.169Z,20.77
2022-08-05T01:41:27.921Z,20.75
2022-08-05T01:42:27.957Z,20.80
2022-08-05T01:43:27.898Z,20.81
2022-08-05T01:44:34.215Z,20.84
2022-08-05T01:45:28.869Z,20.82
2022-08-05T01:46:42.868Z,20.78
2022-08-05T01:47:38.986Z,20.78
2022-08-05T01:48:28.829Z,20.82
2022-08-05T01:49:27.828Z,20.82
2022-08-05T01:50:29.641Z,20.77
2022-08-05T01:51:29.414Z,20.77
2022-08-05T01:52:27.789Z,20.77
2022-08-05T01:53:54.710Z,20.72
2022-08-05T01:54:28.760Z,20.77
2022-08-05T01:55:27.757Z,20.77
2022-08-05T01:58:10.381Z,20.81
2022-08-05T01:58:12.869Z,20.78
2022-08-05T01:58:40.242Z,20.78
2022-08-05T01:59:28.710Z,20.78
2022-08-05T02:00:30.305Z,20.82
2022-08-05T02:01:27.722Z,20.85
2022-08-05T02:02:28.411Z,20.90
2022-08-05T02:03:31.907Z,20.93
2022-08-05T02:04:28.671Z,20.96
2022-08-05T02:05:28.729Z,21.00
2022-08-05T02:06:37.151Z,21.06
2022-08-05T02:07:30.384Z,21.07
2022-08-05T02:08:30.869Z,21.06
2022-08-05T02:09:28.259Z,21.03
2022-08-05T02:10:28.679Z,21.00
2022-08-05T02:11:33.304Z,20.99
2022-08-05T02:12:28.567Z,20.99
2022-08-05T02:13:27.552Z,20.97
2022-08-05T02:14:28.531Z,20.96
2022-08-05T02:15:33.352Z,20.93
2022-08-05T02:16:28.525Z,20.93
2022-08-05T02:18:27.624Z,20.95
2022-08-05T02:18:34.556Z,20.99
2022-08-05T02:19:28.482Z,20.97
2022-08-05T02:20:28.470Z,20.95
2022-08-05T02:21:27.480Z,20.95
2022-08-05T02:22:27.539Z,20.93
2022-08-05T02:23:27.461Z,20.93
2022-08-05T02:24:27.422Z,20.97
2022-08-05T02:25:27.421Z,21.00
2022-08-05T02:26:28.421Z,20.99
2022-08-05T02:27:29.873Z,20.99
2022-08-05T02:28:31.269Z,20.99
2022-08-05T02:29:58.626Z,20.97
2022-08-05T02:30:28.344Z,20.96
2022-08-05T02:31:28.331Z,20.96
2022-08-05T02:32:30.540Z,20.95
2022-08-05T02:33:38.359Z,20.93
2022-08-05T02:34:28.304Z,20.93
2022-08-05T02:35:28.000Z,20.95
2022-08-05T02:36:31.185Z,20.93
2022-08-05T02:37:27.353Z,20.93
2022-08-05T02:38:27.255Z,20.96
2022-08-05T02:39:28.293Z,20.96
2022-08-05T02:40:27.519Z,20.96
2022-08-05T02:41:28.771Z,20.95
2022-08-05T02:42:31.892Z,20.96
2022-08-05T02:43:28.213Z,20.95
2022-08-05T02:44:27.185Z,20.93
2022-08-05T02:45:27.176Z,20.93
2022-08-05T02:46:27.720Z,20.95
2022-08-05T02:48:06.901Z,20.95
2022-08-05T02:48:29.675Z,20.96
2022-08-05T02:49:27.136Z,20.96
2022-08-05T02:50:28.124Z,20.95
2022-08-05T02:51:28.163Z,20.92
2022-08-05T02:52:30.641Z,20.90
2022-08-05T02:53:27.097Z,20.90
2022-08-05T02:54:35.845Z,20.90
2022-08-05T02:55:54.358Z,20.87
2022-08-05T02:56:28.059Z,20.87
2022-08-05T02:58:09.654Z,20.87
2022-08-05T02:58:28.855Z,20.92
2022-08-05T02:59:27.831Z,20.97
2022-08-05T03:00:27.112Z,20.96
2022-08-05T03:01:27.314Z,20.93
2022-08-05T03:02:27.470Z,20.90
2022-08-05T03:03:26.987Z,20.90
2022-08-05T03:04:27.969Z,20.90
2022-08-05T03:06:56.472Z,20.93
2022-08-05T03:06:56.562Z,20.88
2022-08-05T03:07:59.392Z,20.97
2022-08-05T03:08:30.057Z,20.99
2022-08-05T03:09:37.648Z,20.99
2022-08-05T03:10:27.920Z,20.99
2022-08-05T03:11:56.586Z,20.93
2022-08-05T03:12:27.880Z,20.88
2022-08-05T03:13:27.686Z,20.85
2022-08-05T03:14:27.859Z,20.80
2022-08-05T03:15:26.850Z,20.78
2022-08-05T03:16:26.881Z,20.77
2022-08-05T03:17:26.942Z,20.77
2022-08-05T03:18:30.029Z,20.78
2022-08-05T03:19:34.121Z,20.80
2022-08-05T03:20:27.790Z,20.80
2022-08-05T03:21:28.675Z,20.81
2022-08-05T03:22:32.210Z,20.80
2022-08-05T03:23:27.767Z,20.78
2022-08-05T03:24:30.011Z,20.77
2022-08-05T03:25:32.376Z,20.78
2022-08-05T03:26:30.913Z,20.77
2022-08-05T03:27:39.299Z,20.75
2022-08-05T03:28:27.722Z,20.75
2022-08-05T03:29:44.606Z,20.77
2022-08-05T03:30:30.123Z,20.80
2022-08-05T03:31:56.721Z,20.80
2022-08-05T03:32:31.047Z,20.80
2022-08-05T03:33:42.346Z,20.78
2022-08-05T03:34:27.651Z,20.78
2022-08-05T03:35:26.633Z,20.81
2022-08-05T03:36:30.612Z,20.81
2022-08-05T03:37:26.883Z,20.84
2022-08-05T03:38:33.195Z,20.85
2022-08-05T03:39:27.788Z,20.85
2022-08-05T03:40:32.037Z,20.85
2022-08-05T03:41:33.286Z,20.84
2022-08-05T03:42:28.906Z,20.84
2022-08-05T03:44:09.202Z,20.82
2022-08-05T03:44:29.083Z,20.84
2022-08-05T03:45:26.536Z,20.84
2022-08-05T03:46:29.585Z,20.81
2022-08-05T03:47:26.531Z,20.80
2022-08-05T03:48:27.476Z,20.80
2022-08-05T03:49:52.150Z,20.80
2022-08-05T03:50:30.181Z,20.80
2022-08-05T03:52:37.709Z,20.82
2022-08-05T03:52:39.200Z,20.82
2022-08-05T03:55:00.468Z,20.87
2022-08-05T03:55:54.775Z,20.85
2022-08-05T03:56:04.946Z,20.82
2022-08-05T03:56:34.783Z,20.81
2022-08-05T03:57:35.135Z,20.81
2022-08-05T03:58:29.147Z,20.81
2022-08-05T03:59:26.355Z,20.81
2022-08-05T04:00:26.348Z,20.80
2022-08-05T04:01:26.395Z,20.81
2022-08-05T04:02:38.905Z,20.84
2022-08-05T04:03:28.733Z,20.84
2022-08-05T04:04:26.568Z,20.87
2022-08-05T04:05:27.947Z,20.87
2022-08-05T04:06:27.319Z,20.85
2022-08-05T04:07:26.267Z,20.84
2022-08-05T04:08:35.207Z,20.82
2022-08-05T04:09:27.244Z,20.81
2022-08-05T04:10:27.911Z,20.80
2022-08-05T04:11:50.409Z,20.75
2022-08-05T04:12:27.291Z,20.74
2022-08-05T04:13:26.205Z,20.74
2022-08-05T04:14:29.789Z,20.69
2022-08-05T04:15:26.178Z,20.65
2022-08-05T04:16:32.597Z,20.66
2022-08-05T04:17:55.705Z,20.67
2022-08-05T04:18:27.165Z,20.69
2022-08-05T04:19:26.134Z,20.70
2022-08-05T04:20:26.126Z,20.74
2022-08-05T04:22:09.084Z,20.80
2022-08-05T04:22:27.108Z,20.80
2022-08-05T04:23:57.124Z,20.84
2022-08-05T04:24:27.607Z,20.87
2022-08-05T04:25:57.759Z,20.88
2022-08-05T04:26:27.058Z,20.92
2022-08-05T04:27:41.703Z,20.92
2022-08-05T04:28:28.577Z,20.90
2022-08-05T04:29:27.157Z,20.88
2022-08-05T04:30:26.560Z,20.92
2022-08-05T04:31:27.712Z,20.96
2022-08-05T04:32:31.014Z,20.96
2022-08-05T04:34:18.782Z,20.96
2022-08-05T04:34:33.443Z,20.90
2022-08-05T04:35:26.949Z,20.90
2022-08-05T04:36:45.961Z,20.81
2022-08-05T04:38:02.070Z,20.82
2022-08-05T04:38:39.561Z,20.81
2022-08-05T04:39:27.590Z,20.82
2022-08-05T04:40:25.914Z,20.81
2022-08-05T04:41:36.697Z,20.77
2022-08-05T04:42:26.880Z,20.70
2022-08-05T04:43:25.978Z,20.69
2022-08-05T04:44:29.467Z,20.69
2022-08-05T04:45:47.812Z,20.70
2022-08-05T04:46:27.841Z,20.74
2022-08-05T04:47:26.181Z,20.74
2022-08-05T04:48:27.649Z,20.74
2022-08-05T04:49:38.850Z,20.75
2022-08-05T04:50:34.387Z,20.69
2022-08-05T04:51:30.317Z,20.67
2022-08-05T04:52:27.381Z,20.66
2022-08-05T04:53:25.752Z,20.65
2022-08-05T04:54:25.741Z,20.62
2022-08-05T04:56:14.501Z,20.60
2022-08-05T04:56:34.553Z,20.58
2022-08-05T04:57:29.250Z,20.59
2022-08-05T04:58:25.694Z,20.60
2022-08-05T04:59:38.807Z,20.59
2022-08-05T05:00:26.682Z,20.62
2022-08-05T05:02:05.445Z,20.62
2022-08-05T05:02:37.508Z,20.60
2022-08-05T05:03:26.646Z,20.62
2022-08-05T05:04:26.635Z,20.63
2022-08-05T05:05:28.906Z,20.65
2022-08-05T05:06:39.907Z,20.67
2022-08-05T05:07:29.367Z,20.66
2022-08-05T05:08:30.393Z,20.67
2022-08-05T05:09:25.591Z,20.70
2022-08-05T05:10:25.594Z,20.70
2022-08-05T05:11:25.548Z,20.74
2022-08-05T05:12:27.229Z,20.74
2022-08-05T05:13:25.525Z,20.77
2022-08-05T05:14:28.069Z,20.77
2022-08-05T05:16:01.938Z,20.80
2022-08-05T05:16:30.452Z,20.80
2022-08-05T05:17:56.485Z,20.82
2022-08-05T05:18:30.982Z,20.84
2022-08-05T05:19:27.439Z,20.85
2022-08-05T05:20:28.346Z,20.88
2022-08-05T05:21:27.075Z,20.88
2022-08-05T05:22:26.517Z,20.90
2022-08-05T05:23:25.415Z,20.92
2022-08-05T05:24:56.165Z,20.96
2022-08-05T05:25:32.658Z,20.96
2022-08-05T05:26:28.768Z,21.00
2022-08-05T05:27:44.750Z,21.03
2022-08-05T05:28:26.358Z,21.11
2022-08-05T05:29:25.347Z,21.15
2022-08-05T05:30:29.263Z,21.21
2022-08-05T05:31:25.318Z,21.32
2022-08-05T05:32:25.317Z,21.46
2022-08-05T05:33:25.298Z,21.57
2022-08-05T05:34:27.095Z,21.66
2022-08-05T05:35:25.298Z,21.73
2022-08-05T05:36:25.277Z,21.80
2022-08-05T05:37:37.199Z,21.93
2022-08-05T05:38:27.445Z,21.98
2022-08-05T05:39:25.300Z,22.04
2022-08-05T05:40:26.254Z,22.14
2022-08-05T05:41:25.215Z,22.15
2022-08-05T05:42:26.208Z,22.14
2022-08-05T05:43:57.319Z,22.14
2022-08-05T05:44:36.484Z,22.02
2022-08-05T05:45:26.160Z,21.95
2022-08-05T05:46:25.172Z,21.92
2022-08-05T05:47:30.557Z,21.92
2022-08-05T05:48:27.301Z,21.91
2022-08-05T05:49:25.129Z,21.93
2022-08-05T05:50:25.871Z,21.95
2022-08-05T05:51:25.539Z,21.96
2022-08-05T05:52:25.479Z,22.02
2022-08-05T05:53:25.081Z,22.07
2022-08-05T05:54:50.843Z,22.13
2022-08-05T05:55:52.030Z,22.14
2022-08-05T05:56:31.519Z,22.22
2022-08-05T05:57:26.168Z,22.32
2022-08-05T05:58:31.826Z,22.48
2022-08-05T05:59:26.011Z,22.62
2022-08-05T06:00:27.525Z,22.69
2022-08-05T06:01:28.340Z,22.78
2022-08-05T06:02:32.685Z,22.78
2022-08-05T06:03:28.624Z,22.75
2022-08-05T06:04:25.991Z,22.70
2022-08-05T06:05:24.972Z,22.62
2022-08-05T06:06:24.933Z,22.63
2022-08-05T06:07:42.032Z,22.65
2022-08-05T06:08:32.642Z,22.60
2022-08-05T06:09:51.358Z,22.54
2022-08-05T06:10:25.894Z,22.48
2022-08-05T06:11:24.874Z,22.45
2022-08-05T06:12:27.168Z,22.36
2022-08-05T06:13:24.882Z,22.32
2022-08-05T06:14:24.843Z,22.33
2022-08-05T06:15:24.836Z,22.26
2022-08-05T06:16:28.596Z,22.25
2022-08-05T06:17:31.023Z,22.28
2022-08-05T06:18:31.286Z,22.33
2022-08-05T06:19:26.246Z,22.35
2022-08-05T06:20:25.787Z,22.39
2022-08-05T06:21:24.763Z,22.50
2022-08-05T06:22:25.756Z,22.62
2022-08-05T06:23:24.765Z,22.78
2022-08-05T06:24:27.253Z,22.93
2022-08-05T06:26:12.813Z,23.32
2022-08-05T06:26:25.718Z,23.39
2022-08-05T06:28:11.407Z,23.21
2022-08-05T06:28:28.436Z,23.09
2022-08-05T06:29:46.464Z,23.00
2022-08-05T06:30:25.695Z,22.91
2022-08-05T06:31:32.180Z,22.85
2022-08-05T06:32:29.106Z,22.78
2022-08-05T06:33:33.255Z,22.68
2022-08-05T06:34:26.466Z,22.70
2022-08-05T06:36:07.664Z,22.63
2022-08-05T06:36:25.968Z,22.50
2022-08-05T06:37:56.725Z,22.47
2022-08-05T06:38:36.134Z,22.43
2022-08-05T06:39:27.083Z,22.36
2022-08-05T06:40:28.048Z,22.33
2022-08-05T06:41:25.559Z,22.32
2022-08-05T06:42:24.542Z,22.33
2022-08-05T06:43:57.867Z,22.36
2022-08-05T06:44:25.515Z,22.43
2022-08-05T06:45:44.944Z,22.50
2022-08-05T06:46:30.219Z,22.59
2022-08-05T06:48:11.435Z,22.75
2022-08-05T06:48:56.186Z,22.88
2022-08-05T06:50:00.789Z,23.02
2022-08-05T06:50:25.450Z,23.20
2022-08-05T06:51:30.114Z,23.59
2022-08-05T06:52:36.618Z,23.96
2022-08-05T06:53:28.252Z,24.24
2022-08-05T06:54:25.968Z,24.08
2022-08-05T06:55:24.393Z,23.92
2022-08-05T06:56:26.586Z,23.78
2022-08-05T06:58:03.858Z,23.74
2022-08-05T06:58:35.141Z,23.65
2022-08-05T06:59:25.336Z,23.59
2022-08-05T07:00:24.821Z,23.43
2022-08-05T07:01:32.088Z,23.34
2022-08-05T07:02:25.314Z,23.17
2022-08-05T07:03:32.341Z,23.06
2022-08-05T07:04:25.321Z,22.96
2022-08-05T07:05:27.676Z,23.00
2022-08-05T07:06:25.265Z,23.05
2022-08-05T07:07:35.443Z,23.06
2022-08-05T07:08:25.259Z,23.08
2022-08-05T07:09:24.921Z,23.17
2022-08-05T07:10:24.286Z,23.27
2022-08-05T07:11:25.639Z,23.39
2022-08-05T07:12:24.200Z,23.61
2022-08-05T07:13:39.460Z,24.24
2022-08-05T07:14:30.251Z,24.39
2022-08-05T07:15:34.683Z,24.95
2022-08-05T07:17:56.257Z,25.44
2022-08-05T07:18:02.048Z,25.63
2022-08-05T07:18:29.079Z,25.98
2022-08-05T07:20:10.550Z,26.83
2022-08-05T07:20:34.146Z,27.33
2022-08-05T07:21:25.742Z,27.49
2022-08-05T07:22:28.631Z,27.68
2022-08-05T07:23:26.419Z,27.26
2022-08-05T07:24:25.058Z,26.78
2022-08-05T07:25:56.203Z,26.60
2022-08-05T07:26:25.870Z,26.34
2022-08-05T07:27:27.780Z,26.23
2022-08-05T07:28:25.029Z,26.16
2022-08-05T07:30:21.884Z,26.28
2022-08-05T07:30:31.705Z,26.33
2022-08-05T07:31:40.832Z,25.90
2022-08-05T07:32:26.240Z,25.55
2022-08-05T07:33:36.561Z,25.18
2022-08-05T07:34:28.593Z,24.98
2022-08-05T07:36:05.058Z,24.98
2022-08-05T07:36:24.941Z,25.03
2022-08-05T07:37:24.153Z,24.91
2022-08-05T07:38:33.720Z,24.85
2022-08-05T07:40:04.362Z,24.85
2022-08-05T07:40:31.968Z,24.89
2022-08-05T07:42:07.481Z,24.86
2022-08-05T07:42:31.478Z,24.73
2022-08-05T07:43:24.871Z,24.61
2022-08-05T07:44:23.843Z,24.54
2022-08-05T07:45:56.628Z,24.58
2022-08-05T07:46:25.837Z,24.66
2022-08-05T07:47:25.864Z,24.70
2022-08-05T07:49:00.821Z,24.85
2022-08-05T07:49:24.784Z,25.01
2022-08-05T07:50:28.844Z,25.17
2022-08-05T07:51:37.281Z,25.21
2022-08-05T07:52:24.753Z,25.22
2022-08-05T07:53:23.739Z,25.32
2022-08-05T07:54:26.594Z,25.46
2022-08-05T07:56:05.869Z,25.54
2022-08-05T07:57:01.343Z,25.55
2022-08-05T07:57:58.956Z,25.62
2022-08-05T07:58:57.447Z,25.59
2022-08-05T07:59:38.311Z,25.53
2022-08-05T08:00:24.665Z,25.59
2022-08-05T08:01:23.726Z,25.70
2022-08-05T08:02:26.397Z,25.84
2022-08-05T08:03:24.628Z,25.85
2022-08-05T08:04:38.112Z,25.77
2022-08-05T08:05:24.606Z,25.73
2022-08-05T08:06:23.593Z,25.68
2022-08-05T08:07:23.634Z,25.77
2022-08-05T08:08:23.567Z,25.80
2022-08-05T08:09:23.566Z,25.73
2022-08-05T08:10:23.617Z,25.68
2022-08-05T08:11:27.509Z,25.68
2022-08-05T08:12:36.903Z,25.72
2022-08-05T08:13:29.197Z,25.69
2022-08-05T08:14:24.510Z,25.81
2022-08-05T08:16:35.233Z,25.84
2022-08-05T08:16:35.948Z,25.73
2022-08-05T08:17:24.622Z,25.80
2022-08-05T08:18:23.469Z,25.80
2022-08-05T08:20:21.652Z,25.78
2022-08-05T08:20:59.832Z,25.80
2022-08-05T08:21:24.431Z,25.90
2022-08-05T08:22:23.431Z,26.02
2022-08-05T08:24:02.598Z,26.10
2022-08-05T08:24:45.984Z,26.06
2022-08-05T08:25:26.913Z,26.15
2022-08-05T08:26:29.426Z,26.28
2022-08-05T08:27:40.360Z,26.43
2022-08-05T08:28:36.067Z,26.43
2022-08-05T08:30:06.115Z,26.48
2022-08-05T08:30:32.700Z,26.47
2022-08-05T08:31:24.333Z,26.43
2022-08-05T08:32:28.100Z,26.37
2022-08-05T08:33:24.323Z,26.23
2022-08-05T08:34:30.693Z,26.15
2022-08-05T08:35:26.671Z,26.16
2022-08-05T08:36:38.830Z,26.25
2022-08-05T08:37:28.042Z,26.22
2022-08-05T08:38:35.199Z,26.15
2022-08-05T08:39:24.292Z,26.15
2022-08-05T08:40:23.224Z,26.18
2022-08-05T08:41:26.287Z,26.19
2022-08-05T08:42:34.446Z,26.13
2022-08-05T08:45:22.625Z,26.15
2022-08-05T08:45:25.239Z,26.16
2022-08-05T08:45:27.096Z,26.13
2022-08-05T08:46:24.160Z,26.10
2022-08-05T08:48:06.233Z,26.07
2022-08-05T08:49:04.201Z,26.09
2022-08-05T08:50:14.572Z,26.13
2022-08-05T08:50:52.574Z,26.15
2022-08-05T08:52:03.214Z,26.21
2022-08-05T08:52:24.379Z,26.25
2022-08-05T08:53:23.086Z,26.33
2022-08-05T08:54:27.404Z,26.41
2022-08-05T08:56:01.924Z,26.47
2022-08-05T08:56:26.990Z,26.56
2022-08-05T08:57:23.036Z,26.70
2022-08-05T08:58:26.057Z,26.78
2022-08-05T08:59:27.542Z,26.90
2022-08-05T09:00:24.025Z,26.99
2022-08-05T09:01:23.030Z,27.12
2022-08-05T09:02:26.560Z,27.20
2022-08-05T09:03:22.969Z,27.37
2022-08-05T09:04:22.958Z,27.47
2022-08-05T09:05:38.618Z,27.52
2022-08-05T09:06:24.158Z,27.60
2022-08-05T09:07:29.081Z,27.58
2022-08-05T09:08:26.630Z,27.48
2022-08-05T09:09:22.912Z,27.47
2022-08-05T09:10:27.798Z,27.58
2022-08-05T09:11:53.042Z,27.70
2022-08-05T09:12:27.313Z,27.78
2022-08-05T09:13:23.872Z,27.77
2022-08-05T09:14:57.715Z,27.64
2022-08-05T09:15:23.841Z,27.67
2022-08-05T09:16:22.824Z,27.73
2022-08-05T09:17:40.516Z,27.70
2022-08-05T09:18:23.811Z,27.74
2022-08-05T09:19:27.662Z,27.82
2022-08-05T09:20:37.736Z,27.74
2022-08-05T09:22:21.798Z,27.40
2022-08-05T09:22:32.051Z,27.26
2022-08-05T09:23:23.763Z,27.26
2022-08-05T09:24:24.300Z,27.21
2022-08-05T09:25:24.376Z,27.40
2022-08-05T09:26:23.716Z,27.87
2022-08-05T09:28:04.449Z,28.10
2022-08-05T09:28:23.686Z,28.19
2022-08-05T09:29:30.937Z,28.26
2022-08-05T09:30:23.807Z,28.23
2022-08-05T09:32:40.886Z,28.27
2022-08-05T09:32:42.351Z,28.19
2022-08-05T09:33:23.637Z,28.33
2022-08-05T09:34:23.627Z,28.30
2022-08-05T09:35:26.659Z,28.35
2022-08-05T09:36:27.916Z,28.42
2022-08-05T09:38:17.763Z,28.37
2022-08-05T09:38:27.717Z,28.37
2022-08-05T09:39:23.666Z,28.42
2022-08-05T09:40:23.615Z,28.49
2022-08-05T09:41:22.560Z,28.56
2022-08-05T09:42:24.166Z,28.66
2022-08-05T09:43:23.529Z,28.52
2022-08-05T09:44:22.520Z,28.38
2022-08-05T09:46:07.454Z,28.38
2022-08-05T09:46:27.952Z,28.35
2022-08-05T09:47:22.515Z,28.32
2022-08-05T09:48:22.501Z,28.29
2022-08-05T09:49:22.492Z,28.23
2022-08-05T09:50:37.506Z,28.20
2022-08-05T09:51:23.471Z,28.20
2022-08-05T09:52:22.749Z,28.11
2022-08-05T09:53:26.148Z,28.05
2022-08-05T09:54:28.976Z,28.04
2022-08-05T09:55:57.872Z,27.98
2022-08-05T09:56:23.393Z,27.89
2022-08-05T09:58:12.478Z,27.73
2022-08-05T09:59:17.018Z,27.63
2022-08-05T10:00:12.459Z,27.52
2022-08-05T10:01:15.364Z,27.51
2022-08-05T10:02:13.523Z,27.39
2022-08-05T10:03:12.420Z,27.25
2022-08-05T10:04:12.437Z,27.30
2022-08-05T10:05:12.420Z,27.37
2022-08-05T10:06:15.469Z,27.55
2022-08-05T10:07:31.893Z,27.73
2022-08-05T10:08:37.588Z,27.85
2022-08-05T10:09:27.837Z,27.92
2022-08-05T10:10:15.625Z,27.93
2022-08-05T10:11:12.335Z,27.85
2022-08-05T10:12:30.757Z,27.59
2022-08-05T10:13:14.631Z,27.51
2022-08-05T10:14:12.311Z,27.51
2022-08-05T10:15:12.294Z,27.60
2022-08-05T10:16:12.306Z,27.73
2022-08-05T10:17:14.089Z,27.75
2022-08-05T10:18:13.264Z,27.78
2022-08-05T10:19:12.245Z,27.87
2022-08-05T10:20:12.242Z,27.83
2022-08-05T10:21:16.438Z,27.98
2022-08-05T10:22:15.718Z,28.05
2022-08-05T10:23:34.677Z,28.00
2022-08-05T10:24:13.628Z,27.93
2022-08-05T10:25:14.463Z,27.90
2022-08-05T10:26:13.953Z,27.87
2022-08-05T10:27:12.184Z,27.96
2022-08-05T10:28:17.226Z,28.07
2022-08-05T10:29:13.149Z,28.11
2022-08-05T10:31:20.969Z,28.23
2022-08-05T10:32:53.401Z,28.41
2022-08-05T10:33:01.410Z,28.38
2022-08-05T10:33:14.937Z,28.49
2022-08-05T10:34:12.088Z,28.54
2022-08-05T10:35:12.068Z,28.51
2022-08-05T10:36:12.070Z,28.48
2022-08-05T10:37:12.070Z,28.52
2022-08-05T10:38:12.044Z,28.66
2022-08-05T10:39:15.194Z,28.67
2022-08-05T10:40:17.977Z,28.74
2022-08-05T10:41:13.865Z,28.72
2022-08-05T10:42:12.000Z,28.74
2022-08-05T10:43:12.447Z,28.64
2022-08-05T10:44:11.997Z,28.56
2022-08-05T10:45:23.591Z,28.39
2022-08-05T10:46:12.951Z,28.35
2022-08-05T10:47:27.016Z,28.30
2022-08-05T10:48:31.695Z,28.33
2022-08-05T10:49:16.902Z,28.44
2022-08-05T10:50:32.251Z,28.51
2022-08-05T10:51:22.037Z,28.59
2022-08-05T10:52:12.892Z,28.69
2022-08-05T10:53:11.885Z,28.79
2022-08-05T10:54:28.882Z,28.76
2022-08-05T10:55:16.133Z,28.70
2022-08-05T10:56:21.151Z,28.70
2022-08-05T10:57:12.838Z,28.75
2022-08-05T10:58:11.827Z,28.84
2022-08-05T10:59:12.492Z,28.96
2022-08-05T11:00:18.506Z,29.02
2022-08-05T11:01:12.795Z,29.05
2022-08-05T11:02:14.124Z,28.89
2022-08-05T11:03:23.148Z,28.63
2022-08-05T11:04:12.803Z,28.62
2022-08-05T11:05:11.746Z,28.63
2022-08-05T11:06:15.362Z,28.70
2022-08-05T11:07:11.977Z,28.79
2022-08-05T11:08:36.527Z,28.84
2022-08-05T11:09:13.225Z,28.93
2022-08-05T11:10:11.694Z,28.88
2022-08-05T11:11:16.475Z,28.88
2022-08-05T11:12:12.678Z,28.85
2022-08-05T11:13:11.667Z,28.82
2022-08-05T11:14:11.718Z,28.81
2022-08-05T11:15:20.402Z,28.85
2022-08-05T11:16:12.626Z,28.76
2022-08-05T11:17:57.116Z,28.70
2022-08-05T11:18:12.972Z,28.67
2022-08-05T11:20:16.826Z,28.56
2022-08-05T11:20:18.313Z,28.47
2022-08-05T11:21:12.569Z,28.29
2022-08-05T11:22:11.559Z,28.14
2022-08-05T11:23:11.592Z,28.01
2022-08-05T11:24:14.737Z,27.89
2022-08-05T11:26:03.458Z,27.73
2022-08-05T11:26:12.520Z,27.49
2022-08-05T11:27:11.502Z,27.33
2022-08-05T11:28:11.514Z,27.21
2022-08-05T11:29:14.341Z,27.12
2022-08-05T11:30:11.464Z,27.02
2022-08-05T11:31:11.464Z,26.96
2022-08-05T11:32:12.442Z,27.02
2022-08-05T11:33:20.858Z,27.08
2022-08-05T11:34:14.745Z,27.25
2022-08-05T11:35:11.421Z,27.40
2022-08-05T11:36:11.403Z,27.55
2022-08-05T11:38:26.315Z,27.67
2022-08-05T11:38:28.626Z,27.77
2022-08-05T11:39:12.429Z,27.82
2022-08-05T11:40:11.364Z,27.93
2022-08-05T11:41:34.815Z,27.90
2022-08-05T11:42:12.336Z,27.78
2022-08-05T11:43:12.327Z,27.82
2022-08-05T11:44:11.315Z,27.77
2022-08-05T11:45:14.558Z,27.68
2022-08-05T11:46:30.624Z,27.51
2022-08-05T11:47:15.233Z,27.26
2022-08-05T11:48:12.275Z,27.05
2022-08-05T11:49:11.267Z,26.92
2022-08-05T11:50:14.334Z,26.75
2022-08-05T11:51:11.257Z,26.60
2022-08-05T11:52:12.260Z,26.47
2022-08-05T11:53:11.225Z,26.41
2022-08-05T11:54:11.216Z,26.38
2022-08-05T11:55:11.198Z,26.45
2022-08-05T11:56:11.321Z,26.70
2022-08-05T11:57:24.926Z,27.00
2022-08-05T11:58:12.242Z,27.40
2022-08-05T11:59:13.837Z,27.77
2022-08-05T12:00:11.149Z,28.01
2022-08-05T12:01:11.159Z,28.27
2022-08-05T12:02:12.107Z,28.54
2022-08-05T12:03:12.166Z,28.66
2022-08-05T12:04:11.099Z,28.67
2022-08-05T12:05:17.999Z,28.66
2022-08-05T12:06:12.100Z,28.27
2022-08-05T12:07:11.070Z,28.02
2022-08-05T12:08:11.653Z,27.89
2022-08-05T12:09:19.921Z,27.95
2022-08-05T12:10:12.085Z,28.08
2022-08-05T12:11:11.023Z,28.29
2022-08-05T12:12:12.031Z,28.48
2022-08-05T12:13:13.961Z,28.54
2022-08-05T12:14:11.995Z,28.69
2022-08-05T12:15:15.124Z,28.78
2022-08-05T12:16:15.028Z,28.75
2022-08-05T12:17:13.092Z,28.79
2022-08-05T12:18:12.414Z,28.93
2022-08-05T12:19:10.936Z,28.88
2022-08-05T12:20:16.790Z,28.69
2022-08-05T12:21:12.283Z,28.42
2022-08-05T12:22:10.903Z,28.11
2022-08-05T12:23:11.004Z,27.83
2022-08-05T12:24:10.903Z,27.58
2022-08-05T12:25:14.375Z,27.42
2022-08-05T12:26:11.858Z,27.26
2022-08-05T12:27:21.505Z,27.14
2022-08-05T12:28:11.836Z,27.10
2022-08-05T12:29:11.869Z,27.11
2022-08-05T12:30:15.318Z,27.20
2022-08-05T12:31:10.807Z,27.27
2022-08-05T12:32:11.797Z,27.20
2022-08-05T12:33:27.427Z,27.18
2022-08-05T12:34:14.622Z,26.93
2022-08-05T12:35:11.787Z,26.95
2022-08-05T12:36:11.760Z,27.08
2022-08-05T12:37:10.796Z,27.30
2022-08-05T12:38:11.730Z,27.44
2022-08-05T12:39:10.766Z,27.58
2022-08-05T12:40:11.329Z,27.71
2022-08-05T12:41:13.238Z,27.78
2022-08-05T12:42:14.847Z,27.80
2022-08-05T12:43:10.668Z,27.73
2022-08-05T12:44:11.541Z,27.70
2022-08-05T12:45:10.663Z,27.75
2022-08-05T12:46:12.484Z,27.71
2022-08-05T12:47:12.443Z,27.65
2022-08-05T12:48:17.512Z,27.52
2022-08-05T12:49:13.086Z,27.48
2022-08-05T12:50:10.601Z,27.70
2022-08-05T12:52:11.131Z,27.93
2022-08-05T12:52:17.588Z,28.12
2022-08-05T12:53:11.579Z,28.12